Tuesday, October 23, 2018, 9:04 PM EDT
Back to Local

KVSF, Hartness State Airport

Location: Perkinsville, VT, United States Lat: 43.35
Local Time: 9:04 PM EDT ( 1:04 GMT) Lon: -72.517
Time Zone: US/Eastern Elev: 577 ft

Show me the last for .
Show Decoded

2018-10-23 20:23 METAR KVSF 240023Z AUTO 04004KT 3SM -RA BR FEW003 OVC011 04/04 A2993 RMK AO2
                 RAB14 P0000 T00440044 =
2018-10-23 20:13 METAR KVSF 240013Z AUTO 00000KT 3SM BR FEW004 BKN008 OVC013 04/04 A2993 RMK AO2
                 T00440044 =
2018-10-23 20:10 METAR KVSF 240010Z AUTO 00000KT 1 3/4SM BR FEW004 BKN008 OVC013 04/04 A2993 RMK
                 AO2 T00440044 =
2018-10-23 19:54 METAR KVSF 232354Z AUTO 21003KT 1SM BR FEW002 BKN013 OVC090 04/04 A2993 RMK AO2
                 SLP140 60014 T00390039 10078 20033 53001 =
2018-10-23 19:49 METAR KVSF 232349Z AUTO 00000KT 3/4SM BR SCT002 BKN013 OVC090 04/04 A2993 RMK
                 AO2 =
2018-10-23 19:24 METAR KVSF 232324Z AUTO 21004KT 1/2SM FG VV002 03/03 A2993 RMK AO2 T00330033 =
2018-10-23 19:03 METAR KVSF 232303Z AUTO 06003KT 1/4SM FG VV002 04/04 A2992 RMK AO2 LTG DSNT S
                 T00440044 =
2018-10-23 18:56 METAR KVSF 232256Z AUTO 07004KT 1 1/2SM BR FEW002 SCT095 04/04 A2992 RMK AO2
                 T00390039 =
2018-10-23 18:54 METAR KVSF 232254Z AUTO 06004KT 3SM BR SCT090 04/04 A2992 RMK AO2 SLP138
                 T00440044 =
2018-10-23 18:46 METAR KVSF 232246Z AUTO 34003KT 2SM BR FEW018 SCT095 04/04 A2993 RMK AO2 VIS 1
                 1/4V4 T00440044 =
2018-10-23 18:36 METAR KVSF 232236Z AUTO 34004KT 3SM BR FEW018 FEW065 BKN095 04/04 A2993 RMK AO2
                 T00440044 =
2018-10-23 18:23 METAR KVSF 232223Z AUTO 00000KT 1 1/4SM BR SCT018 04/04 A2993 RMK AO2 T00440044
                 =
2018-10-23 18:16 METAR KVSF 232216Z AUTO 00000KT 1 3/4SM BR BKN018 04/04 A2993 RMK AO2 T00440044
                 =
2018-10-23 17:56 METAR KVSF 232156Z AUTO 04003KT 4SM BR BKN017 06/06 A2993 RMK AO2 T00560056 =
2018-10-23 17:54 METAR KVSF 232154Z AUTO 04003KT 1 3/4SM BR BKN017 06/06 A2993 RMK AO2 SLP139
                 T00560056 =
2018-10-23 17:46 METAR KVSF 232146Z AUTO 00000KT 3/4SM BR VV017 05/05 A2993 RMK AO2 VIS 1/2V4
                 T00500050 =
2018-10-23 17:42 METAR KVSF 232142Z AUTO 00000KT 1 3/4SM BR FEW017 06/06 A2993 RMK AO2 VIS 3/4V5
                 T00560056 =
2018-10-23 17:30 METAR KVSF 232130Z AUTO 00000KT 9SM SCT016 06/06 A2992 RMK AO2 T00610061 =
2018-10-23 17:02 METAR KVSF 232102Z AUTO 36003KT 10SM SCT010 BKN015 07/06 A2992 RMK AO2 T00720056
                 =
2018-10-23 16:54 METAR KVSF 232054Z AUTO 01003KT 10SM BKN010 BKN017 07/06 A2993 RMK AO2 LTG DSNT
                 E CIG 007V012 SLP139 60014 T00720061 58013 =
2018-10-23 16:46 METAR KVSF 232046Z AUTO 00000KT 10SM BKN009 08/07 A2993 RMK AO2 LTG DSNT E CIG
                 007V012 T00780067 =
2018-10-23 16:07 METAR KVSF 232007Z AUTO 00000KT 10SM BKN013 BKN018 07/06 A2993 RMK AO2 LTG DSNT
                 SE PRESFR T00720061 =
2018-10-23 15:54 METAR KVSF 231954Z AUTO 04004KT 10SM FEW004 BKN016 07/06 A2995 RMK AO2 RAE36
                 SLP145 P0001 T00720061 =
2018-10-23 15:43 METAR KVSF 231943Z AUTO 00000KT 10SM FEW004 BKN018 OVC055 07/06 A2995 RMK AO2
                 RAE36 P0001 T00670061 =
2018-10-23 15:31 METAR KVSF 231931Z AUTO 00000KT 10SM -RA FEW004 FEW019 OVC060 06/06 A2995 RMK
                 AO2 P0001 T00610061 =
2018-10-23 15:09 METAR KVSF 231909Z AUTO 06003KT 4SM -RA BR FEW024 BKN038 OVC060 06/06 A2996 RMK
                 AO2 P0001 T00560056 =
2018-10-23 14:56 METAR KVSF 231856Z AUTO 06005KT 2SM RA BR FEW010 SCT022 OVC037 06/06 A2996 RMK
                 AO2 P0000 T00560056 =
2018-10-23 14:54 METAR KVSF 231854Z AUTO 07005KT 1 1/2SM RA BR FEW010 BKN023 OVC035 06/06 A2996
                 RMK AO2 SLP151 P0013 T00560056 =
2018-10-23 14:51 METAR KVSF 231851Z AUTO 08003KT 1 1/2SM RA BR SCT010 BKN025 OVC040 06/06 A2997
                 RMK AO2 P0012 =
2018-10-23 14:44 METAR KVSF 231844Z AUTO 00000KT 2SM +RA BR SCT010 BKN020 OVC028 06/06 A2997 RMK
                 AO2 P0008 T00560056 =
2018-10-23 14:34 METAR KVSF 231834Z AUTO 29003KT 3SM RA BR BKN010 OVC018 06/06 A2998 RMK AO2
                 P0004 T00560056 =
2018-10-23 13:54 METAR KVSF 231754Z AUTO 00000KT 8SM -RA BKN026 OVC032 05/05 A2998 RMK AO2 SLP158
                 P0008 60019 T00500050 10061 20022 58033 =
2018-10-23 13:18 METAR KVSF 231718Z AUTO 00000KT 3SM RA BR OVC028 05/05 A3001 RMK AO2 P0005
                 T00500050 =
2018-10-23 13:09 METAR KVSF 231709Z AUTO 00000KT 3SM -RA BR BKN030 OVC039 05/05 A3001 RMK AO2
                 P0003 T00500050 =
2018-10-23 12:54 METAR KVSF 231654Z AUTO 00000KT 2 1/2SM -RA BR OVC029 05/05 A3002 RMK AO2 SLP173
                 P0007 T00500050 =
2018-10-23 11:54 METAR KVSF 231554Z AUTO 00000KT 8SM -RA BKN033 OVC046 06/04 A3006 RMK AO2 SLP183
                 P0004 T00610044 =
2018-10-23 10:54 METAR KVSF 231454Z AUTO 21003KT 10SM -RA BKN044 OVC060 06/02 A3008 RMK AO2 RAB46
                 SLP191 P0000 60000 T00610022 58007 =
2018-10-23 09:54 METAR KVSF 231354Z AUTO 00000KT 10SM BKN070 OVC085 05/02 A3009 RMK AO2 SLP196
                 T00500017 =
2018-10-23 08:54 METAR KVSF 231254Z AUTO 00000KT 10SM OVC100 03/02 A3010 RMK AO2 SLP200 T00330022
                 =
2018-10-23 07:54 METAR KVSF 231154Z AUTO 00000KT 10SM OVC100 03/02 A3010 RMK AO2 SLP200 T00280022
                 10033 20022 55003 =
2018-10-23 06:54 METAR KVSF 231054Z AUTO 00000KT 10SM FEW070 OVC100 03/02 A3010 RMK AO2 SLP198
                 T00280017 =
2018-10-23 05:54 METAR KVSF 230954Z AUTO 00000KT 10SM OVC090 02/02 A3010 RMK AO2 SLP199 T00220017
                 =
2018-10-23 04:54 METAR KVSF 230854Z AUTO 00000KT 10SM OVC090 03/02 A3011 RMK AO2 SLP202 T00280017
                 58006 =
2018-10-23 03:54 METAR KVSF 230754Z AUTO 00000KT 10SM FEW070 OVC090 03/02 A3012 RMK AO2 SLP203
                 T00330017 =
2018-10-23 02:54 METAR KVSF 230654Z AUTO 00000KT 10SM OVC080 03/02 A3013 RMK AO2 SLP207 T00330022
                 =
2018-10-23 01:54 METAR KVSF 230554Z AUTO 00000KT 10SM OVC080 03/02 A3013 RMK AO2 SLP207 T00330017
                 10056 20028 58006 =
2018-10-23 00:54 METAR KVSF 230454Z AUTO 00000KT 10SM OVC075 04/02 A3014 RMK AO2 SLP210 T00390017
                 400831056 =
2018-10-22 23:54 METAR KVSF 230354Z AUTO 00000KT 10SM OVC075 04/02 A3014 RMK AO2 SLP212 T00390017
                 =
2018-10-22 22:54 METAR KVSF 230254Z AUTO 00000KT 10SM OVC070 04/02 A3015 RMK AO2 SLP214 T00440017
                 51003 =
2018-10-22 21:54 METAR KVSF 230154Z AUTO 00000KT 10SM BKN048 OVC055 04/02 A3015 RMK AO2 SLP214
                 T00440017 =

Support USWX by starting your Amazon purchase here.